sensor_id;sensor_type;location;lat;lon;timestamp;P1;durP1;ratioP1;P2;durP2;ratioP2
19879;SDS011;10102;50.828;4.416;2022-09-19T00:01:22;10.05;;;2.17;;
19879;SDS011;10102;50.828;4.416;2022-09-19T00:03:56;12.70;;;2.22;;
19879;SDS011;10102;50.828;4.416;2022-09-19T00:06:24;9.30;;;2.08;;
19879;SDS011;10102;50.828;4.416;2022-09-19T00:08:52;9.63;;;2.20;;
19879;SDS011;10102;50.828;4.416;2022-09-19T00:11:19;5.18;;;1.88;;
19879;SDS011;10102;50.828;4.416;2022-09-19T00:13:46;9.52;;;3.03;;
19879;SDS011;10102;50.828;4.416;2022-09-19T00:16:19;10.20;;;2.40;;
19879;SDS011;10102;50.828;4.416;2022-09-19T00:18:53;10.70;;;2.17;;
19879;SDS011;10102;50.828;4.416;2022-09-19T00:21:21;11.23;;;2.03;;
19879;SDS011;10102;50.828;4.416;2022-09-19T00:23:51;7.68;;;2.33;;
19879;SDS011;10102;50.828;4.416;2022-09-19T00:26:35;9.75;;;2.28;;
19879;SDS011;10102;50.828;4.416;2022-09-19T00:29:04;14.10;;;2.58;;
19879;SDS011;10102;50.828;4.416;2022-09-19T00:31:31;5.40;;;1.55;;
19879;SDS011;10102;50.828;4.416;2022-09-19T00:33:57;9.65;;;2.10;;
19879;SDS011;10102;50.828;4.416;2022-09-19T00:36:23;11.07;;;2.40;;
19879;SDS011;10102;50.828;4.416;2022-09-19T00:38:49;6.53;;;2.05;;
19879;SDS011;10102;50.828;4.416;2022-09-19T00:41:16;10.43;;;2.03;;
19879;SDS011;10102;50.828;4.416;2022-09-19T00:43:48;6.70;;;2.33;;
19879;SDS011;10102;50.828;4.416;2022-09-19T00:46:16;9.43;;;1.85;;
19879;SDS011;10102;50.828;4.416;2022-09-19T00:48:44;6.13;;;1.98;;
19879;SDS011;10102;50.828;4.416;2022-09-19T00:51:31;6.47;;;2.25;;
19879;SDS011;10102;50.828;4.416;2022-09-19T00:54:05;8.35;;;2.10;;
19879;SDS011;10102;50.828;4.416;2022-09-19T00:56:39;8.02;;;2.10;;
19879;SDS011;10102;50.828;4.416;2022-09-19T00:59:07;8.40;;;2.63;;
19879;SDS011;10102;50.828;4.416;2022-09-19T01:01:34;6.90;;;2.45;;
19879;SDS011;10102;50.828;4.416;2022-09-19T01:04:00;7.68;;;1.92;;
19879;SDS011;10102;50.828;4.416;2022-09-19T01:06:41;5.65;;;1.95;;
19879;SDS011;10102;50.828;4.416;2022-09-19T01:25:47;12.15;;;2.22;;
19879;SDS011;10102;50.828;4.416;2022-09-19T01:28:51;17.00;;;2.58;;
19879;SDS011;10102;50.828;4.416;2022-09-19T01:31:33;6.40;;;2.17;;
19879;SDS011;10102;50.828;4.416;2022-09-19T01:39:18;8.23;;;1.67;;
19879;SDS011;10102;50.828;4.416;2022-09-19T01:41:52;11.77;;;2.13;;
19879;SDS011;10102;50.828;4.416;2022-09-19T01:44:22;8.68;;;2.10;;
19879;SDS011;10102;50.828;4.416;2022-09-19T01:54:56;3.42;;;1.73;;
19879;SDS011;10102;50.828;4.416;2022-09-19T02:02:45;9.45;;;2.10;;
19879;SDS011;10102;50.828;4.416;2022-09-19T02:10:45;10.85;;;1.77;;
19879;SDS011;10102;50.828;4.416;2022-09-19T02:13:21;9.13;;;1.95;;
19879;SDS011;10102;50.828;4.416;2022-09-19T02:15:51;13.75;;;2.70;;
19879;SDS011;10102;50.828;4.416;2022-09-19T02:18:36;6.45;;;1.98;;
19879;SDS011;10102;50.828;4.416;2022-09-19T02:21:09;6.95;;;1.52;;
19879;SDS011;10102;50.828;4.416;2022-09-19T02:23:40;11.52;;;1.70;;
19879;SDS011;10102;50.828;4.416;2022-09-19T02:26:12;14.55;;;1.98;;
19879;SDS011;10102;50.828;4.416;2022-09-19T02:28:43;8.95;;;1.58;;
19879;SDS011;10102;50.828;4.416;2022-09-19T02:31:10;11.65;;;1.58;;
19879;SDS011;10102;50.828;4.416;2022-09-19T02:33:37;4.97;;;1.50;;
19879;SDS011;10102;50.828;4.416;2022-09-19T02:41:41;13.73;;;1.70;;
19879;SDS011;10102;50.828;4.416;2022-09-19T02:52:24;5.38;;;2.00;;
19879;SDS011;10102;50.828;4.416;2022-09-19T02:54:57;13.82;;;1.58;;
19879;SDS011;10102;50.828;4.416;2022-09-19T02:57:31;7.60;;;1.92;;
19879;SDS011;10102;50.828;4.416;2022-09-19T03:00:00;7.30;;;1.90;;
19879;SDS011;10102;50.828;4.416;2022-09-19T03:02:30;8.35;;;1.80;;
19879;SDS011;10102;50.828;4.416;2022-09-19T03:05:08;10.05;;;1.80;;
19879;SDS011;10102;50.828;4.416;2022-09-19T03:07:40;5.50;;;1.70;;
19879;SDS011;10102;50.828;4.416;2022-09-19T03:10:12;5.55;;;1.15;;
19879;SDS011;10102;50.828;4.416;2022-09-19T03:15:05;11.55;;;2.40;;
19879;SDS011;10102;50.828;4.416;2022-09-19T03:17:35;11.52;;;1.83;;
19879;SDS011;10102;50.828;4.416;2022-09-19T03:20:06;9.57;;;1.83;;
19879;SDS011;10102;50.828;4.416;2022-09-19T03:22:36;7.47;;;2.03;;
19879;SDS011;10102;50.828;4.416;2022-09-19T03:25:04;6.07;;;1.67;;
19879;SDS011;10102;50.828;4.416;2022-09-19T03:27:31;8.63;;;1.55;;
19879;SDS011;10102;50.828;4.416;2022-09-19T03:29:56;10.80;;;1.88;;
19879;SDS011;10102;50.828;4.416;2022-09-19T03:32:22;10.40;;;2.08;;
19879;SDS011;10102;50.828;4.416;2022-09-19T03:34:51;10.80;;;1.90;;
19879;SDS011;10102;50.828;4.416;2022-09-19T03:37:20;9.07;;;1.55;;
19879;SDS011;10102;50.828;4.416;2022-09-19T03:39:46;12.85;;;2.20;;
19879;SDS011;10102;50.828;4.416;2022-09-19T03:42:12;10.13;;;2.22;;
19879;SDS011;10102;50.828;4.416;2022-09-19T03:44:39;6.13;;;1.60;;
19879;SDS011;10102;50.828;4.416;2022-09-19T03:47:05;16.77;;;2.03;;
19879;SDS011;10102;50.828;4.416;2022-09-19T03:49:30;10.27;;;2.03;;
19879;SDS011;10102;50.828;4.416;2022-09-19T03:51:56;14.02;;;1.55;;
19879;SDS011;10102;50.828;4.416;2022-09-19T03:54:24;7.30;;;2.28;;
19879;SDS011;10102;50.828;4.416;2022-09-19T03:56:50;21.58;;;2.38;;
19879;SDS011;10102;50.828;4.416;2022-09-19T03:59:16;8.27;;;2.25;;
19879;SDS011;10102;50.828;4.416;2022-09-19T04:01:41;9.93;;;2.17;;
19879;SDS011;10102;50.828;4.416;2022-09-19T04:04:07;4.95;;;1.80;;
19879;SDS011;10102;50.828;4.416;2022-09-19T04:06:33;5.38;;;1.60;;
19879;SDS011;10102;50.828;4.416;2022-09-19T04:08:58;12.32;;;1.75;;
19879;SDS011;10102;50.828;4.416;2022-09-19T04:11:27;8.85;;;2.10;;
19879;SDS011;10102;50.828;4.416;2022-09-19T04:13:54;13.30;;;1.95;;
19879;SDS011;10102;50.828;4.416;2022-09-19T04:16:20;9.30;;;2.25;;
19879;SDS011;10102;50.828;4.416;2022-09-19T04:18:47;8.98;;;1.88;;
19879;SDS011;10102;50.828;4.416;2022-09-19T04:21:15;7.05;;;1.63;;
19879;SDS011;10102;50.828;4.416;2022-09-19T04:23:45;10.02;;;1.63;;
19879;SDS011;10102;50.828;4.416;2022-09-19T04:26:11;8.85;;;2.15;;
19879;SDS011;10102;50.828;4.416;2022-09-19T04:28:38;8.70;;;2.03;;
19879;SDS011;10102;50.828;4.416;2022-09-19T04:31:05;7.03;;;2.13;;
19879;SDS011;10102;50.828;4.416;2022-09-19T04:33:33;8.48;;;1.80;;
19879;SDS011;10102;50.828;4.416;2022-09-19T04:35:59;9.30;;;1.77;;
19879;SDS011;10102;50.828;4.416;2022-09-19T04:38:25;10.85;;;2.38;;
19879;SDS011;10102;50.828;4.416;2022-09-19T04:40:54;13.02;;;2.13;;
19879;SDS011;10102;50.828;4.416;2022-09-19T04:43:22;12.50;;;2.05;;
19879;SDS011;10102;50.828;4.416;2022-09-19T04:45:49;5.68;;;1.73;;
19879;SDS011;10102;50.828;4.416;2022-09-19T04:48:18;12.80;;;2.50;;
19879;SDS011;10102;50.828;4.416;2022-09-19T04:50:44;15.48;;;2.78;;
19879;SDS011;10102;50.828;4.416;2022-09-19T04:53:15;8.25;;;1.90;;
19879;SDS011;10102;50.828;4.416;2022-09-19T04:55:48;10.02;;;2.03;;
19879;SDS011;10102;50.828;4.416;2022-09-19T05:01:38;8.25;;;2.20;;
19879;SDS011;10102;50.828;4.416;2022-09-19T05:04:04;8.73;;;2.10;;
19879;SDS011;10102;50.828;4.416;2022-09-19T05:06:30;7.40;;;2.03;;
19879;SDS011;10102;50.828;4.416;2022-09-19T05:08:56;14.13;;;2.13;;
19879;SDS011;10102;50.828;4.416;2022-09-19T05:11:25;14.48;;;2.10;;
19879;SDS011;10102;50.828;4.416;2022-09-19T05:13:52;13.45;;;2.08;;
19879;SDS011;10102;50.828;4.416;2022-09-19T05:16:18;7.90;;;2.17;;
19879;SDS011;10102;50.828;4.416;2022-09-19T05:18:44;8.27;;;2.15;;
19879;SDS011;10102;50.828;4.416;2022-09-19T05:21:11;11.20;;;1.98;;
19879;SDS011;10102;50.828;4.416;2022-09-19T05:23:39;9.80;;;2.47;;
19879;SDS011;10102;50.828;4.416;2022-09-19T05:26:09;8.75;;;2.08;;
19879;SDS011;10102;50.828;4.416;2022-09-19T05:28:40;8.15;;;1.50;;
19879;SDS011;10102;50.828;4.416;2022-09-19T05:31:06;7.28;;;1.77;;
19879;SDS011;10102;50.828;4.416;2022-09-19T05:33:32;11.48;;;2.10;;
19879;SDS011;10102;50.828;4.416;2022-09-19T05:35:59;10.48;;;2.25;;
19879;SDS011;10102;50.828;4.416;2022-09-19T05:38:27;8.43;;;2.13;;
19879;SDS011;10102;50.828;4.416;2022-09-19T05:40:55;8.63;;;2.10;;
19879;SDS011;10102;50.828;4.416;2022-09-19T05:43:22;9.85;;;1.85;;
19879;SDS011;10102;50.828;4.416;2022-09-19T05:45:49;9.65;;;2.65;;
19879;SDS011;10102;50.828;4.416;2022-09-19T05:48:15;14.23;;;1.95;;
19879;SDS011;10102;50.828;4.416;2022-09-19T05:50:44;5.25;;;1.90;;
19879;SDS011;10102;50.828;4.416;2022-09-19T05:53:11;9.60;;;2.47;;
19879;SDS011;10102;50.828;4.416;2022-09-19T05:55:57;8.80;;;2.17;;
19879;SDS011;10102;50.828;4.416;2022-09-19T05:58:24;9.93;;;2.33;;
19879;SDS011;10102;50.828;4.416;2022-09-19T06:00:50;12.07;;;2.30;;
19879;SDS011;10102;50.828;4.416;2022-09-19T06:03:16;9.75;;;2.90;;
19879;SDS011;10102;50.828;4.416;2022-09-19T06:05:45;6.28;;;1.70;;
19879;SDS011;10102;50.828;4.416;2022-09-19T06:08:14;11.07;;;2.15;;
19879;SDS011;10102;50.828;4.416;2022-09-19T06:10:42;10.88;;;2.38;;
19879;SDS011;10102;50.828;4.416;2022-09-19T06:13:12;10.95;;;2.17;;
19879;SDS011;10102;50.828;4.416;2022-09-19T06:15:40;15.65;;;2.15;;
19879;SDS011;10102;50.828;4.416;2022-09-19T06:18:05;10.52;;;2.53;;
19879;SDS011;10102;50.828;4.416;2022-09-19T06:20:32;13.48;;;2.35;;
19879;SDS011;10102;50.828;4.416;2022-09-19T06:22:58;9.13;;;2.40;;
19879;SDS011;10102;50.828;4.416;2022-09-19T06:25:30;8.20;;;2.20;;
19879;SDS011;10102;50.828;4.416;2022-09-19T06:27:59;8.65;;;2.22;;
19879;SDS011;10102;50.828;4.416;2022-09-19T06:30:26;7.88;;;2.17;;
19879;SDS011;10102;50.828;4.416;2022-09-19T06:32:52;10.95;;;2.20;;
19879;SDS011;10102;50.828;4.416;2022-09-19T06:35:19;10.48;;;2.28;;
19879;SDS011;10102;50.828;4.416;2022-09-19T06:37:46;14.60;;;2.63;;
19879;SDS011;10102;50.828;4.416;2022-09-19T06:40:13;10.55;;;2.40;;
19879;SDS011;10102;50.828;4.416;2022-09-19T06:42:40;8.10;;;1.80;;
19879;SDS011;10102;50.828;4.416;2022-09-19T06:45:06;14.50;;;2.70;;
19879;SDS011;10102;50.828;4.416;2022-09-19T06:47:33;9.52;;;2.13;;
19879;SDS011;10102;50.828;4.416;2022-09-19T06:50:00;11.23;;;2.22;;
19879;SDS011;10102;50.828;4.416;2022-09-19T06:52:27;11.50;;;2.92;;
19879;SDS011;10102;50.828;4.416;2022-09-19T06:54:53;13.98;;;2.38;;
19879;SDS011;10102;50.828;4.416;2022-09-19T06:57:19;8.88;;;2.55;;
19879;SDS011;10102;50.828;4.416;2022-09-19T06:59:45;12.30;;;2.33;;
19879;SDS011;10102;50.828;4.416;2022-09-19T07:02:11;10.63;;;2.60;;
19879;SDS011;10102;50.828;4.416;2022-09-19T07:04:37;10.13;;;2.70;;
19879;SDS011;10102;50.828;4.416;2022-09-19T07:07:03;8.32;;;2.22;;
19879;SDS011;10102;50.828;4.416;2022-09-19T07:09:30;11.95;;;2.20;;
19879;SDS011;10102;50.828;4.416;2022-09-19T07:11:56;15.75;;;2.95;;
19879;SDS011;10102;50.828;4.416;2022-09-19T07:14:22;11.23;;;2.40;;
19879;SDS011;10102;50.828;4.416;2022-09-19T07:16:48;10.95;;;2.28;;
19879;SDS011;10102;50.828;4.416;2022-09-19T07:19:14;15.50;;;2.08;;
19879;SDS011;10102;50.828;4.416;2022-09-19T07:21:40;7.90;;;2.33;;
19879;SDS011;10102;50.828;4.416;2022-09-19T07:24:06;9.07;;;2.47;;
19879;SDS011;10102;50.828;4.416;2022-09-19T07:26:32;13.90;;;2.17;;
19879;SDS011;10102;50.828;4.416;2022-09-19T07:28:58;11.40;;;2.50;;
19879;SDS011;10102;50.828;4.416;2022-09-19T07:31:27;5.90;;;2.25;;
19879;SDS011;10102;50.828;4.416;2022-09-19T07:33:53;12.15;;;2.35;;
19879;SDS011;10102;50.828;4.416;2022-09-19T07:36:20;15.05;;;2.95;;
19879;SDS011;10102;50.828;4.416;2022-09-19T07:38:48;12.52;;;2.78;;
19879;SDS011;10102;50.828;4.416;2022-09-19T07:41:15;10.60;;;2.42;;
19879;SDS011;10102;50.828;4.416;2022-09-19T07:43:41;7.13;;;2.35;;
19879;SDS011;10102;50.828;4.416;2022-09-19T07:46:07;9.23;;;2.63;;
19879;SDS011;10102;50.828;4.416;2022-09-19T07:48:33;19.55;;;3.03;;
19879;SDS011;10102;50.828;4.416;2022-09-19T07:50:59;19.35;;;2.30;;
19879;SDS011;10102;50.828;4.416;2022-09-19T07:53:27;13.60;;;2.67;;
19879;SDS011;10102;50.828;4.416;2022-09-19T07:55:53;12.80;;;2.80;;
19879;SDS011;10102;50.828;4.416;2022-09-19T07:58:21;8.48;;;2.63;;
19879;SDS011;10102;50.828;4.416;2022-09-19T08:00:48;10.00;;;2.58;;
19879;SDS011;10102;50.828;4.416;2022-09-19T08:03:16;11.77;;;3.13;;
19879;SDS011;10102;50.828;4.416;2022-09-19T08:05:44;8.60;;;2.20;;
19879;SDS011;10102;50.828;4.416;2022-09-19T08:08:11;12.30;;;3.65;;
19879;SDS011;10102;50.828;4.416;2022-09-19T08:10:40;12.00;;;2.50;;
19879;SDS011;10102;50.828;4.416;2022-09-19T08:13:07;13.27;;;2.70;;
19879;SDS011;10102;50.828;4.416;2022-09-19T08:15:37;17.67;;;2.85;;
19879;SDS011;10102;50.828;4.416;2022-09-19T08:18:09;13.32;;;3.75;;
19879;SDS011;10102;50.828;4.416;2022-09-19T08:20:38;15.52;;;3.13;;
19879;SDS011;10102;50.828;4.416;2022-09-19T08:23:06;25.67;;;4.22;;
19879;SDS011;10102;50.828;4.416;2022-09-19T08:25:37;15.05;;;2.85;;
19879;SDS011;10102;50.828;4.416;2022-09-19T08:28:04;20.85;;;2.55;;
19879;SDS011;10102;50.828;4.416;2022-09-19T08:30:30;13.73;;;2.80;;
19879;SDS011;10102;50.828;4.416;2022-09-19T08:32:58;10.50;;;2.45;;
19879;SDS011;10102;50.828;4.416;2022-09-19T08:35:25;11.65;;;2.47;;
19879;SDS011;10102;50.828;4.416;2022-09-19T08:37:53;13.60;;;3.67;;
19879;SDS011;10102;50.828;4.416;2022-09-19T08:45:22;12.60;;;2.67;;
19879;SDS011;10102;50.828;4.416;2022-09-19T08:48:02;17.02;;;3.00;;
19879;SDS011;10102;50.828;4.416;2022-09-19T08:50:35;16.33;;;3.47;;
19879;SDS011;10102;50.828;4.416;2022-09-19T08:53:03;14.40;;;2.58;;
19879;SDS011;10102;50.828;4.416;2022-09-19T08:55:34;17.20;;;2.47;;
19879;SDS011;10102;50.828;4.416;2022-09-19T08:58:14;13.15;;;2.20;;
19879;SDS011;10102;50.828;4.416;2022-09-19T09:00:43;8.45;;;2.45;;
19879;SDS011;10102;50.828;4.416;2022-09-19T09:03:14;15.07;;;2.70;;
19879;SDS011;10102;50.828;4.416;2022-09-19T09:11:16;14.50;;;2.65;;
19879;SDS011;10102;50.828;4.416;2022-09-19T09:21:41;15.02;;;2.63;;
19879;SDS011;10102;50.828;4.416;2022-09-19T09:24:17;12.48;;;2.58;;
19879;SDS011;10102;50.828;4.416;2022-09-19T09:26:48;14.27;;;3.20;;
19879;SDS011;10102;50.828;4.416;2022-09-19T09:29:37;10.57;;;2.75;;
19879;SDS011;10102;50.828;4.416;2022-09-19T09:32:12;9.30;;;2.60;;
19879;SDS011;10102;50.828;4.416;2022-09-19T09:35:00;11.70;;;2.33;;
19879;SDS011;10102;50.828;4.416;2022-09-19T09:40:16;7.57;;;1.33;;
19879;SDS011;10102;50.828;4.416;2022-09-19T09:43:05;11.98;;;1.50;;
19879;SDS011;10102;50.828;4.416;2022-09-19T09:45:41;14.55;;;1.85;;
19879;SDS011;10102;50.828;4.416;2022-09-19T09:48:28;10.27;;;1.92;;
19879;SDS011;10102;50.828;4.416;2022-09-19T09:56:53;10.43;;;1.98;;
19879;SDS011;10102;50.828;4.416;2022-09-19T10:05:19;11.55;;;2.40;;
19879;SDS011;10102;50.828;4.416;2022-09-19T10:10:39;8.75;;;2.05;;
19879;SDS011;10102;50.828;4.416;2022-09-19T10:15:55;7.57;;;1.70;;
19879;SDS011;10102;50.828;4.416;2022-09-19T10:18:28;9.38;;;2.35;;
19879;SDS011;10102;50.828;4.416;2022-09-19T10:21:16;9.05;;;2.38;;
19879;SDS011;10102;50.828;4.416;2022-09-19T10:23:42;11.85;;;2.08;;
19879;SDS011;10102;50.828;4.416;2022-09-19T10:26:10;6.30;;;1.80;;
19879;SDS011;10102;50.828;4.416;2022-09-19T10:28:52;8.45;;;1.80;;
19879;SDS011;10102;50.828;4.416;2022-09-19T10:31:31;9.93;;;1.85;;
19879;SDS011;10102;50.828;4.416;2022-09-19T10:34:02;10.63;;;1.92;;
19879;SDS011;10102;50.828;4.416;2022-09-19T10:36:45;9.43;;;1.85;;
19879;SDS011;10102;50.828;4.416;2022-09-19T10:39:13;13.98;;;1.98;;
19879;SDS011;10102;50.828;4.416;2022-09-19T10:41:40;10.98;;;2.10;;
19879;SDS011;10102;50.828;4.416;2022-09-19T10:44:18;7.47;;;2.17;;
19879;SDS011;10102;50.828;4.416;2022-09-19T10:46:49;6.88;;;1.40;;
19879;SDS011;10102;50.828;4.416;2022-09-19T10:49:20;9.48;;;1.95;;
19879;SDS011;10102;50.828;4.416;2022-09-19T10:51:51;10.18;;;2.08;;
19879;SDS011;10102;50.828;4.416;2022-09-19T10:57:01;6.57;;;1.60;;
19879;SDS011;10102;50.828;4.416;2022-09-19T11:07:25;9.75;;;1.92;;
19879;SDS011;10102;50.828;4.416;2022-09-19T11:09:55;9.35;;;2.30;;
19879;SDS011;10102;50.828;4.416;2022-09-19T11:12:28;8.43;;;1.70;;
19879;SDS011;10102;50.828;4.416;2022-09-19T11:14:57;5.13;;;1.52;;
19879;SDS011;10102;50.828;4.416;2022-09-19T11:23:18;10.05;;;1.67;;
19879;SDS011;10102;50.828;4.416;2022-09-19T11:26:03;8.00;;;1.75;;
19879;SDS011;10102;50.828;4.416;2022-09-19T11:34:11;8.07;;;1.70;;
19879;SDS011;10102;50.828;4.416;2022-09-19T11:40:04;6.13;;;1.92;;
19879;SDS011;10102;50.828;4.416;2022-09-19T11:43:04;8.00;;;1.77;;
19879;SDS011;10102;50.828;4.416;2022-09-19T11:51:48;3.45;;;1.65;;
19879;SDS011;10102;50.828;4.416;2022-09-19T11:57:17;7.38;;;1.70;;
19879;SDS011;10102;50.828;4.416;2022-09-19T12:13:35;11.57;;;1.55;;
19879;SDS011;10102;50.828;4.416;2022-09-19T12:16:06;9.82;;;2.00;;
19879;SDS011;10102;50.828;4.416;2022-09-19T12:21:07;8.82;;;1.58;;
19879;SDS011;10102;50.828;4.416;2022-09-19T12:23:46;8.50;;;1.52;;
19879;SDS011;10102;50.828;4.416;2022-09-19T12:26:50;9.18;;;1.67;;
19879;SDS011;10102;50.828;4.416;2022-09-19T12:29:24;5.88;;;1.70;;
19879;SDS011;10102;50.828;4.416;2022-09-19T12:31:56;5.60;;;1.70;;
19879;SDS011;10102;50.828;4.416;2022-09-19T12:34:40;6.18;;;1.23;;
19879;SDS011;10102;50.828;4.416;2022-09-19T12:37:20;9.63;;;1.50;;
19879;SDS011;10102;50.828;4.416;2022-09-19T12:42:56;12.88;;;2.00;;
19879;SDS011;10102;50.828;4.416;2022-09-19T12:45:36;10.88;;;1.67;;
19879;SDS011;10102;50.828;4.416;2022-09-19T12:48:17;6.70;;;1.42;;
19879;SDS011;10102;50.828;4.416;2022-09-19T12:50:52;6.55;;;1.27;;
19879;SDS011;10102;50.828;4.416;2022-09-19T12:56:16;9.48;;;1.48;;
19879;SDS011;10102;50.828;4.416;2022-09-19T12:58:54;13.98;;;2.10;;
19879;SDS011;10102;50.828;4.416;2022-09-19T13:01:36;5.20;;;1.25;;
19879;SDS011;10102;50.828;4.416;2022-09-19T13:07:03;8.13;;;1.27;;
19879;SDS011;10102;50.828;4.416;2022-09-19T13:09:54;6.45;;;1.25;;
19879;SDS011;10102;50.828;4.416;2022-09-19T13:15:26;5.60;;;1.42;;
19879;SDS011;10102;50.828;4.416;2022-09-19T13:17:53;6.35;;;1.60;;
19879;SDS011;10102;50.828;4.416;2022-09-19T13:20:40;5.60;;;1.10;;
19879;SDS011;10102;50.828;4.416;2022-09-19T13:23:26;3.45;;;1.40;;
19879;SDS011;10102;50.828;4.416;2022-09-19T13:25:58;7.68;;;1.40;;
19879;SDS011;10102;50.828;4.416;2022-09-19T13:28:46;6.78;;;1.25;;
19879;SDS011;10102;50.828;4.416;2022-09-19T13:31:17;7.35;;;1.13;;
19879;SDS011;10102;50.828;4.416;2022-09-19T13:33:48;8.25;;;1.00;;
19879;SDS011;10102;50.828;4.416;2022-09-19T13:39:02;8.07;;;1.08;;
19879;SDS011;10102;50.828;4.416;2022-09-19T13:41:47;7.05;;;1.15;;
19879;SDS011;10102;50.828;4.416;2022-09-19T13:52:14;8.20;;;1.45;;
19879;SDS011;10102;50.828;4.416;2022-09-19T13:59:47;7.47;;;1.20;;
19879;SDS011;10102;50.828;4.416;2022-09-19T14:02:35;13.32;;;1.85;;
19879;SDS011;10102;50.828;4.416;2022-09-19T14:05:05;7.57;;;1.98;;
19879;SDS011;10102;50.828;4.416;2022-09-19T14:13:04;6.65;;;1.88;;
19879;SDS011;10102;50.828;4.416;2022-09-19T14:21:01;13.80;;;1.20;;
19879;SDS011;10102;50.828;4.416;2022-09-19T14:28:48;5.93;;;1.50;;
19879;SDS011;10102;50.828;4.416;2022-09-19T14:48:31;26.02;;;2.65;;
19879;SDS011;10102;50.828;4.416;2022-09-19T14:51:12;3.15;;;1.13;;
19879;SDS011;10102;50.828;4.416;2022-09-19T14:53:52;9.00;;;1.63;;
19879;SDS011;10102;50.828;4.416;2022-09-19T14:56:29;7.97;;;1.50;;
19879;SDS011;10102;50.828;4.416;2022-09-19T14:58:54;6.57;;;1.02;;
19879;SDS011;10102;50.828;4.416;2022-09-19T15:08:56;7.65;;;1.02;;
19879;SDS011;10102;50.828;4.416;2022-09-19T15:11:22;10.70;;;1.70;;
19879;SDS011;10102;50.828;4.416;2022-09-19T15:13:48;10.27;;;1.70;;
19879;SDS011;10102;50.828;4.416;2022-09-19T15:16:17;10.00;;;1.67;;
19879;SDS011;10102;50.828;4.416;2022-09-19T15:18:47;4.05;;;1.02;;
19879;SDS011;10102;50.828;4.416;2022-09-19T15:21:24;6.47;;;1.10;;
19879;SDS011;10102;50.828;4.416;2022-09-19T15:23:53;7.40;;;1.20;;
19879;SDS011;10102;50.828;4.416;2022-09-19T15:26:23;12.60;;;1.30;;
19879;SDS011;10102;50.828;4.416;2022-09-19T15:28:59;11.70;;;1.10;;
19879;SDS011;10102;50.828;4.416;2022-09-19T15:31:27;4.82;;;0.82;;
19879;SDS011;10102;50.828;4.416;2022-09-19T15:34:02;5.40;;;1.08;;
19879;SDS011;10102;50.828;4.416;2022-09-19T15:36:34;7.05;;;1.20;;
19879;SDS011;10102;50.828;4.416;2022-09-19T15:39:02;4.60;;;0.95;;
19879;SDS011;10102;50.828;4.416;2022-09-19T15:41:30;7.13;;;1.33;;
19879;SDS011;10102;50.828;4.416;2022-09-19T15:43:58;4.78;;;1.08;;
19879;SDS011;10102;50.828;4.416;2022-09-19T15:49:04;5.20;;;1.17;;
19879;SDS011;10102;50.828;4.416;2022-09-19T15:51:41;4.90;;;1.20;;
19879;SDS011;10102;50.828;4.416;2022-09-19T15:54:18;7.93;;;1.10;;
19879;SDS011;10102;50.828;4.416;2022-09-19T15:56:51;7.20;;;1.13;;
19879;SDS011;10102;50.828;4.416;2022-09-19T15:59:28;6.05;;;1.20;;
19879;SDS011;10102;50.828;4.416;2022-09-19T16:02:00;6.28;;;1.23;;
19879;SDS011;10102;50.828;4.416;2022-09-19T16:04:41;4.07;;;1.05;;
19879;SDS011;10102;50.828;4.416;2022-09-19T16:07:21;3.40;;;1.10;;
19879;SDS011;10102;50.828;4.416;2022-09-19T16:12:40;11.10;;;1.20;;
19879;SDS011;10102;50.828;4.416;2022-09-19T16:22:55;6.30;;;1.35;;
19879;SDS011;10102;50.828;4.416;2022-09-19T16:25:28;7.50;;;1.60;;
19879;SDS011;10102;50.828;4.416;2022-09-19T16:28:10;8.35;;;1.33;;
19879;SDS011;10102;50.828;4.416;2022-09-19T16:33:14;7.22;;;1.40;;
19879;SDS011;10102;50.828;4.416;2022-09-19T16:35:40;6.25;;;1.08;;
19879;SDS011;10102;50.828;4.416;2022-09-19T16:38:06;4.82;;;0.98;;
19879;SDS011;10102;50.828;4.416;2022-09-19T16:40:32;5.80;;;1.38;;
19879;SDS011;10102;50.828;4.416;2022-09-19T16:42:59;5.68;;;1.05;;
19879;SDS011;10102;50.828;4.416;2022-09-19T16:46:01;12.40;;;1.13;;
19879;SDS011;10102;50.828;4.416;2022-09-19T16:48:27;7.32;;;1.02;;
19879;SDS011;10102;50.828;4.416;2022-09-19T16:50:53;7.35;;;1.25;;
19879;SDS011;10102;50.828;4.416;2022-09-19T16:53:19;8.25;;;1.45;;
19879;SDS011;10102;50.828;4.416;2022-09-19T16:55:45;8.95;;;1.05;;
19879;SDS011;10102;50.828;4.416;2022-09-19T16:58:11;3.65;;;0.90;;
19879;SDS011;10102;50.828;4.416;2022-09-19T17:00:38;7.75;;;1.25;;
19879;SDS011;10102;50.828;4.416;2022-09-19T17:03:04;4.70;;;1.10;;
19879;SDS011;10102;50.828;4.416;2022-09-19T17:05:31;5.65;;;1.00;;
19879;SDS011;10102;50.828;4.416;2022-09-19T17:07:58;5.45;;;1.08;;
19879;SDS011;10102;50.828;4.416;2022-09-19T17:10:25;9.63;;;1.27;;
19879;SDS011;10102;50.828;4.416;2022-09-19T17:12:52;5.03;;;1.35;;
19879;SDS011;10102;50.828;4.416;2022-09-19T17:15:32;5.25;;;1.05;;
19879;SDS011;10102;50.828;4.416;2022-09-19T17:18:05;5.07;;;1.17;;
19879;SDS011;10102;50.828;4.416;2022-09-19T17:20:31;5.05;;;1.35;;
19879;SDS011;10102;50.828;4.416;2022-09-19T17:22:58;3.03;;;1.15;;
19879;SDS011;10102;50.828;4.416;2022-09-19T17:28:08;3.33;;;1.20;;
19879;SDS011;10102;50.828;4.416;2022-09-19T17:30:35;5.50;;;1.92;;
19879;SDS011;10102;50.828;4.416;2022-09-19T17:33:01;3.50;;;0.90;;
19879;SDS011;10102;50.828;4.416;2022-09-19T17:35:27;5.18;;;1.23;;
19879;SDS011;10102;50.828;4.416;2022-09-19T17:37:52;8.27;;;1.30;;
19879;SDS011;10102;50.828;4.416;2022-09-19T17:40:18;5.28;;;1.20;;
19879;SDS011;10102;50.828;4.416;2022-09-19T17:42:46;2.30;;;1.13;;
19879;SDS011;10102;50.828;4.416;2022-09-19T17:45:14;8.05;;;1.42;;
19879;SDS011;10102;50.828;4.416;2022-09-19T17:47:42;5.93;;;1.55;;
19879;SDS011;10102;50.828;4.416;2022-09-19T17:50:07;5.15;;;1.58;;
19879;SDS011;10102;50.828;4.416;2022-09-19T17:52:37;8.35;;;1.75;;
19879;SDS011;10102;50.828;4.416;2022-09-19T17:55:03;11.73;;;1.63;;
19879;SDS011;10102;50.828;4.416;2022-09-19T17:57:30;3.00;;;0.95;;
19879;SDS011;10102;50.828;4.416;2022-09-19T17:59:56;11.40;;;1.75;;
19879;SDS011;10102;50.828;4.416;2022-09-19T18:02:21;9.32;;;1.40;;
19879;SDS011;10102;50.828;4.416;2022-09-19T18:05:07;5.20;;;1.70;;
19879;SDS011;10102;50.828;4.416;2022-09-19T18:07:34;4.85;;;1.40;;
19879;SDS011;10102;50.828;4.416;2022-09-19T18:10:00;9.52;;;1.42;;
19879;SDS011;10102;50.828;4.416;2022-09-19T18:12:26;10.20;;;1.92;;
19879;SDS011;10102;50.828;4.416;2022-09-19T18:14:52;10.15;;;2.42;;
19879;SDS011;10102;50.828;4.416;2022-09-19T18:17:18;10.15;;;1.75;;
19879;SDS011;10102;50.828;4.416;2022-09-19T18:19:48;8.00;;;1.77;;
19879;SDS011;10102;50.828;4.416;2022-09-19T18:22:17;11.25;;;2.05;;
19879;SDS011;10102;50.828;4.416;2022-09-19T18:24:43;8.68;;;2.00;;
19879;SDS011;10102;50.828;4.416;2022-09-19T18:27:08;5.55;;;1.63;;
19879;SDS011;10102;50.828;4.416;2022-09-19T18:29:35;8.07;;;1.95;;
19879;SDS011;10102;50.828;4.416;2022-09-19T18:32:01;12.27;;;1.83;;
19879;SDS011;10102;50.828;4.416;2022-09-19T18:34:27;7.80;;;1.20;;
19879;SDS011;10102;50.828;4.416;2022-09-19T18:36:53;11.95;;;3.78;;
19879;SDS011;10102;50.828;4.416;2022-09-19T18:39:18;8.23;;;1.60;;
19879;SDS011;10102;50.828;4.416;2022-09-19T18:41:45;6.22;;;1.40;;
19879;SDS011;10102;50.828;4.416;2022-09-19T18:44:12;4.80;;;1.65;;
19879;SDS011;10102;50.828;4.416;2022-09-19T18:46:38;7.22;;;1.45;;
19879;SDS011;10102;50.828;4.416;2022-09-19T18:49:04;5.22;;;1.45;;
19879;SDS011;10102;50.828;4.416;2022-09-19T18:51:30;5.00;;;1.17;;
19879;SDS011;10102;50.828;4.416;2022-09-19T18:53:56;4.20;;;1.30;;
19879;SDS011;10102;50.828;4.416;2022-09-19T18:56:26;5.75;;;1.40;;
19879;SDS011;10102;50.828;4.416;2022-09-19T18:58:52;5.18;;;1.23;;